createdAt,value
2019-01-24T00:01:39.164Z,42.13
2019-01-24T00:04:05.814Z,46.00
2019-01-24T00:06:32.260Z,42.33
2019-01-24T00:08:59.104Z,48.58
2019-01-24T00:11:27.569Z,46.18
2019-01-24T00:13:54.168Z,46.85
2019-01-24T00:16:20.837Z,43.02
2019-01-24T00:18:47.311Z,50.60
2019-01-24T00:21:13.870Z,46.13
2019-01-24T00:23:40.471Z,48.20
2019-01-24T00:26:07.127Z,39.35
2019-01-24T00:28:33.713Z,47.90
2019-01-24T00:31:00.260Z,60.23
2019-01-24T00:33:26.860Z,46.63
2019-01-24T00:35:53.627Z,47.88
2019-01-24T00:38:20.400Z,43.87
2019-01-24T00:40:47.339Z,44.30
2019-01-24T00:43:14.662Z,43.80
2019-01-24T00:45:41.260Z,44.05
2019-01-24T00:48:07.959Z,43.78
2019-01-24T00:50:34.452Z,47.60
2019-01-24T00:53:01.008Z,38.98
2019-01-24T00:55:27.840Z,53.33
2019-01-24T00:57:54.383Z,44.33
2019-01-24T01:00:23.269Z,39.27
2019-01-24T01:02:49.920Z,38.38
2019-01-24T01:05:16.701Z,49.48
2019-01-24T01:07:43.352Z,47.38
2019-01-24T01:10:11.959Z,43.55
2019-01-24T01:12:38.716Z,47.33
2019-01-24T01:15:14.957Z,47.15
2019-01-24T01:17:41.911Z,49.67
2019-01-24T01:20:11.569Z,44.03
2019-01-24T01:22:38.240Z,38.90
2019-01-24T01:25:07.791Z,49.67
2019-01-24T01:27:34.460Z,47.65
2019-01-24T01:30:01.012Z,42.17
2019-01-24T01:32:27.487Z,42.15
2019-01-24T01:34:54.433Z,42.30
2019-01-24T01:37:21.380Z,47.25
2019-01-24T01:39:47.824Z,50.65
2019-01-24T01:42:14.291Z,47.55
2019-01-24T01:44:41.200Z,41.88
2019-01-24T01:47:07.678Z,36.33
2019-01-24T01:49:34.282Z,44.50
2019-01-24T01:52:00.853Z,46.33
2019-01-24T01:54:27.340Z,43.85
2019-01-24T01:56:53.897Z,47.73
2019-01-24T01:59:20.374Z,51.18
2019-01-24T02:01:47.130Z,43.63
2019-01-24T02:04:13.696Z,48.58
2019-01-24T02:06:40.537Z,48.05
2019-01-24T02:09:07.710Z,48.95
2019-01-24T02:11:35.139Z,53.90
2019-01-24T02:14:01.985Z,51.95
2019-01-24T02:16:28.433Z,51.58
2019-01-24T02:18:55.094Z,54.25
2019-01-24T02:21:22.264Z,52.15
2019-01-24T02:23:48.758Z,47.80
2019-01-24T02:26:15.486Z,60.15
2019-01-24T02:28:42.161Z,47.00
2019-01-24T02:31:08.627Z,54.33
2019-01-24T02:33:35.213Z,50.90
2019-01-24T02:36:01.986Z,51.92
2019-01-24T02:38:28.460Z,52.80
2019-01-24T02:40:54.912Z,55.50
2019-01-24T02:43:21.318Z,55.60
2019-01-24T02:45:47.868Z,52.08
2019-01-24T02:48:14.361Z,52.85
2019-01-24T02:50:40.816Z,56.45
2019-01-24T02:53:07.723Z,58.00
2019-01-24T02:55:34.304Z,51.28
2019-01-24T02:58:00.743Z,47.98
2019-01-24T03:00:27.329Z,53.87
2019-01-24T03:02:53.990Z,57.48
2019-01-24T03:05:22.402Z,53.68
2019-01-24T03:07:49.021Z,51.48
2019-01-24T03:10:15.729Z,51.60
2019-01-24T03:12:42.481Z,54.10
2019-01-24T03:15:12.133Z,48.98
2019-01-24T03:17:38.792Z,55.83
2019-01-24T03:20:07.779Z,53.48
2019-01-24T03:22:34.323Z,53.70
2019-01-24T03:25:00.885Z,55.83
2019-01-24T03:27:27.472Z,53.78
2019-01-24T03:29:54.187Z,49.15
2019-01-24T03:32:20.780Z,47.75
2019-01-24T03:34:47.521Z,55.75
2019-01-24T03:37:14.102Z,51.40
2019-01-24T03:39:40.550Z,56.80
2019-01-24T03:42:07.323Z,59.88
2019-01-24T03:44:33.867Z,53.80
2019-01-24T03:47:00.332Z,62.15
2019-01-24T03:49:26.893Z,59.63
2019-01-24T03:51:53.475Z,44.03
2019-01-24T03:54:20.019Z,56.05
2019-01-24T03:56:46.601Z,52.90
2019-01-24T03:59:13.161Z,53.50
2019-01-24T04:01:39.919Z,49.35
2019-01-24T04:04:06.554Z,45.25
2019-01-24T04:06:33.200Z,53.92
2019-01-24T04:09:00.067Z,51.15
2019-01-24T04:11:26.509Z,52.85
2019-01-24T04:13:52.977Z,65.78
2019-01-24T04:16:19.528Z,50.50
2019-01-24T04:18:46.217Z,51.80
2019-01-24T04:21:12.653Z,50.60
2019-01-24T04:23:39.133Z,61.70
2019-01-24T04:26:05.667Z,54.18
2019-01-24T04:28:33.055Z,56.05
2019-01-24T04:30:59.710Z,56.98
2019-01-24T04:33:26.205Z,68.45
2019-01-24T04:35:52.653Z,56.75
2019-01-24T04:38:19.287Z,62.60
2019-01-24T04:40:45.933Z,51.25
2019-01-24T04:43:12.395Z,54.20
2019-01-24T04:45:38.856Z,51.02
2019-01-24T04:48:05.431Z,53.63
2019-01-24T04:50:31.982Z,62.15
2019-01-24T04:52:58.462Z,59.73
2019-01-24T04:55:25.000Z,61.70
2019-01-24T04:57:51.549Z,53.40
2019-01-24T05:00:24.527Z,47.73
2019-01-24T05:02:50.989Z,52.98
2019-01-24T05:05:17.601Z,59.10
2019-01-24T05:07:44.152Z,49.42
2019-01-24T05:10:11.124Z,55.52
2019-01-24T05:12:37.671Z,62.43
2019-01-24T05:15:04.663Z,56.92
2019-01-24T05:17:31.230Z,51.75
2019-01-24T05:19:57.989Z,51.45
2019-01-24T05:22:24.532Z,51.45
2019-01-24T05:24:51.116Z,62.50
2019-01-24T05:27:17.588Z,49.83
2019-01-24T05:29:44.060Z,57.03
2019-01-24T05:32:10.499Z,54.93
2019-01-24T05:34:36.881Z,55.60
2019-01-24T05:37:03.544Z,55.52
2019-01-24T05:39:30.140Z,51.85
2019-01-24T05:41:56.582Z,70.85
2019-01-24T05:44:23.035Z,52.50
2019-01-24T05:46:49.500Z,48.98
2019-01-24T05:49:15.852Z,58.83
2019-01-24T05:51:42.424Z,58.55
2019-01-24T05:54:08.976Z,51.37
2019-01-24T05:56:35.440Z,44.63
2019-01-24T05:59:02.157Z,59.23
2019-01-24T06:01:28.944Z,56.40
2019-01-24T06:03:55.409Z,51.58
2019-01-24T06:06:21.969Z,62.30
2019-01-24T06:08:48.412Z,54.53
2019-01-24T06:11:14.906Z,53.95
2019-01-24T06:13:41.353Z,54.83
2019-01-24T06:16:07.849Z,68.37
2019-01-24T06:18:34.392Z,62.78
2019-01-24T06:21:01.237Z,57.85
2019-01-24T06:23:27.722Z,55.63
2019-01-24T06:25:54.289Z,59.90
2019-01-24T06:28:21.027Z,57.25
2019-01-24T06:30:47.485Z,60.35
2019-01-24T06:33:14.220Z,54.50
2019-01-24T06:35:40.567Z,60.55
2019-01-24T06:38:07.047Z,54.23
2019-01-24T06:40:33.500Z,52.80
2019-01-24T06:42:59.980Z,53.15
2019-01-24T06:45:26.548Z,50.12
2019-01-24T06:47:53.052Z,52.67
2019-01-24T06:50:19.699Z,63.30
2019-01-24T06:52:46.150Z,60.52
2019-01-24T06:55:16.009Z,58.20
2019-01-24T06:57:42.556Z,73.22
2019-01-24T07:00:12.728Z,53.70
2019-01-24T07:02:39.380Z,60.78
2019-01-24T07:05:06.261Z,55.75
2019-01-24T07:07:32.800Z,52.17
2019-01-24T07:09:59.292Z,59.65
2019-01-24T07:12:25.741Z,52.70
2019-01-24T07:14:52.112Z,60.83
2019-01-24T07:17:18.701Z,54.95
2019-01-24T07:19:45.264Z,58.28
2019-01-24T07:22:11.720Z,58.35
2019-01-24T07:24:38.172Z,58.55
2019-01-24T07:27:04.869Z,65.90
2019-01-24T07:29:31.725Z,62.62
2019-01-24T07:31:58.502Z,60.25
2019-01-24T07:34:24.948Z,60.08
2019-01-24T07:36:51.335Z,54.80
2019-01-24T07:39:17.884Z,47.10
2019-01-24T07:41:44.267Z,52.33
2019-01-24T07:44:11.105Z,56.05
2019-01-24T07:46:37.701Z,55.78
2019-01-24T07:49:04.345Z,55.43
2019-01-24T07:51:30.931Z,60.15
2019-01-24T07:53:57.385Z,60.50
2019-01-24T07:56:23.854Z,61.23
2019-01-24T07:58:50.309Z,60.28
2019-01-24T08:01:16.748Z,58.98
2019-01-24T08:03:43.353Z,51.88
2019-01-24T08:06:09.826Z,56.77
2019-01-24T08:08:36.595Z,51.28
2019-01-24T08:11:03.268Z,48.65
2019-01-24T08:13:29.766Z,52.78
2019-01-24T08:15:56.212Z,50.08
2019-01-24T08:18:22.692Z,58.73
2019-01-24T08:20:49.448Z,65.47
2019-01-24T08:23:15.970Z,51.70
2019-01-24T08:25:42.419Z,67.22
2019-01-24T08:28:08.885Z,48.73
2019-01-24T08:30:35.451Z,54.60
2019-01-24T08:33:02.363Z,48.10
2019-01-24T08:35:29.217Z,50.00
2019-01-24T08:37:55.773Z,52.50
2019-01-24T08:40:23.163Z,47.65
2019-01-24T08:42:49.713Z,61.40
2019-01-24T08:45:16.756Z,55.43
2019-01-24T08:47:43.424Z,47.08
2019-01-24T08:50:21.649Z,62.53
2019-01-24T08:52:48.313Z,66.20
2019-01-24T08:55:26.507Z,60.78
2019-01-24T08:57:53.053Z,63.85
2019-01-24T09:00:20.480Z,66.97
2019-01-24T09:02:47.964Z,53.02
2019-01-24T09:05:15.063Z,56.23
2019-01-24T09:07:41.673Z,51.20
2019-01-24T09:10:12.042Z,53.83
2019-01-24T09:12:38.518Z,55.63
2019-01-24T09:15:08.740Z,59.15
2019-01-24T09:17:35.345Z,73.00
2019-01-24T09:20:05.007Z,61.10
2019-01-24T09:22:31.478Z,62.15
2019-01-24T09:24:57.920Z,71.50
2019-01-24T09:27:24.861Z,50.23
2019-01-24T09:29:51.301Z,55.28
2019-01-24T09:32:17.954Z,64.27
2019-01-24T09:34:44.491Z,65.95
2019-01-24T09:37:11.088Z,56.55
2019-01-24T09:39:37.541Z,60.58
2019-01-24T09:42:04.185Z,63.68
2019-01-24T09:44:30.760Z,51.18
2019-01-24T09:46:57.306Z,68.72
2019-01-24T09:49:23.793Z,54.48
2019-01-24T09:51:50.241Z,61.02
2019-01-24T09:54:16.719Z,58.48
2019-01-24T09:56:43.271Z,57.50
2019-01-24T09:59:09.850Z,59.73
2019-01-24T10:01:36.495Z,62.73
2019-01-24T10:04:03.177Z,62.05
2019-01-24T10:06:36.090Z,58.83
2019-01-24T10:08:58.147Z,58.30
2019-01-24T10:11:24.600Z,56.98
2019-01-24T10:13:51.272Z,68.90
2019-01-24T10:16:17.753Z,63.50
2019-01-24T10:18:44.224Z,80.95
2019-01-24T10:21:10.775Z,70.08
2019-01-24T10:23:37.260Z,60.70
2019-01-24T10:26:04.110Z,53.45
2019-01-24T10:28:30.698Z,63.73
2019-01-24T10:30:57.245Z,70.62
2019-01-24T10:33:23.708Z,62.60
2019-01-24T10:35:50.371Z,69.12
2019-01-24T10:38:16.819Z,71.57
2019-01-24T10:40:43.310Z,74.32
2019-01-24T10:43:09.962Z,67.85
2019-01-24T10:45:36.547Z,66.05
2019-01-24T10:48:03.402Z,61.28
2019-01-24T10:50:30.159Z,81.20
2019-01-24T10:52:56.837Z,69.65
2019-01-24T10:55:24.795Z,74.30
2019-01-24T10:57:52.459Z,66.17
2019-01-24T11:00:31.858Z,68.72
2019-01-24T11:02:58.972Z,68.45
2019-01-24T11:05:25.615Z,73.17
2019-01-24T11:07:52.180Z,68.35
2019-01-24T11:10:19.651Z,65.05
2019-01-24T11:12:46.822Z,72.80
2019-01-24T11:15:21.812Z,76.05
2019-01-24T11:17:48.655Z,74.62
2019-01-24T11:20:17.359Z,78.97
2019-01-24T11:22:44.202Z,75.25
2019-01-24T11:25:14.051Z,71.60
2019-01-24T11:27:40.735Z,75.85
2019-01-24T11:30:13.498Z,75.95
2019-01-24T11:32:40.174Z,80.65
2019-01-24T11:35:10.528Z,75.60
2019-01-24T11:37:37.007Z,77.87
2019-01-24T11:40:07.283Z,73.75
2019-01-24T11:42:33.856Z,72.82
2019-01-24T11:45:00.334Z,72.58
2019-01-24T11:47:26.775Z,67.37
2019-01-24T11:49:53.274Z,70.35
2019-01-24T11:52:19.832Z,76.07
2019-01-24T11:54:46.471Z,75.92
2019-01-24T11:57:14.075Z,72.05
2019-01-24T11:59:40.548Z,64.17
2019-01-24T12:02:07.003Z,77.10
2019-01-24T12:04:33.843Z,82.05
2019-01-24T12:07:04.139Z,83.85
2019-01-24T12:09:28.627Z,71.12
2019-01-24T12:11:55.020Z,75.80
2019-01-24T12:14:21.502Z,72.58
2019-01-24T12:16:47.978Z,66.22
2019-01-24T12:19:14.428Z,67.22
2019-01-24T12:21:40.916Z,72.70
2019-01-24T12:24:07.375Z,72.60
2019-01-24T12:26:33.947Z,69.20
2019-01-24T12:29:00.588Z,70.42
2019-01-24T12:31:27.056Z,74.77
2019-01-24T12:33:53.518Z,85.15
2019-01-24T12:36:20.117Z,73.28
2019-01-24T12:38:46.651Z,71.53
2019-01-24T12:41:13.213Z,78.00
2019-01-24T12:43:39.795Z,67.03
2019-01-24T12:46:06.377Z,77.53
2019-01-24T12:48:32.862Z,76.42
2019-01-24T12:50:59.272Z,61.28
2019-01-24T12:53:25.684Z,71.47
2019-01-24T12:55:52.284Z,67.95
2019-01-24T12:58:18.823Z,69.10
2019-01-24T13:00:45.473Z,68.15
2019-01-24T13:03:11.957Z,75.83
2019-01-24T13:05:38.396Z,83.33
2019-01-24T13:08:05.056Z,67.82
2019-01-24T13:10:31.741Z,64.58
2019-01-24T13:12:58.320Z,59.33
2019-01-24T13:15:26.999Z,64.30
2019-01-24T13:17:53.657Z,66.35
2019-01-24T13:20:20.330Z,73.35
2019-01-24T13:22:46.879Z,58.85
2019-01-24T13:25:16.547Z,63.78
2019-01-24T13:27:43.006Z,66.67
2019-01-24T13:30:30.273Z,66.50
2019-01-24T13:32:57.038Z,69.58
2019-01-24T13:35:24.169Z,71.62
2019-01-24T13:37:50.725Z,71.97
2019-01-24T13:40:19.257Z,61.18
2019-01-24T13:42:46.240Z,72.87
2019-01-24T13:45:18.418Z,64.95
2019-01-24T13:47:45.671Z,66.53
2019-01-24T13:50:14.488Z,69.07
2019-01-24T13:52:41.069Z,70.80
2019-01-24T13:55:08.200Z,67.10
2019-01-24T13:57:34.943Z,66.55
2019-01-24T14:00:03.388Z,73.02
2019-01-24T14:02:29.967Z,72.10
2019-01-24T14:04:56.410Z,62.83
2019-01-24T14:07:23.098Z,66.85
2019-01-24T14:09:49.839Z,67.45
2019-01-24T14:12:16.353Z,72.70
2019-01-24T14:14:42.904Z,58.60
2019-01-24T14:17:09.583Z,66.22
2019-01-24T14:19:35.933Z,68.28
2019-01-24T14:22:02.812Z,64.53
2019-01-24T14:24:29.258Z,62.98
2019-01-24T14:26:55.623Z,66.17
2019-01-24T14:29:22.248Z,62.88
2019-01-24T14:31:49.364Z,72.67
2019-01-24T14:34:16.024Z,68.40
2019-01-24T14:36:42.500Z,75.55
2019-01-24T14:39:09.272Z,68.57
2019-01-24T14:41:35.863Z,76.92
2019-01-24T14:44:02.504Z,65.08
2019-01-24T14:46:28.985Z,62.65
2019-01-24T14:48:55.540Z,65.80
2019-01-24T14:51:22.108Z,69.82
2019-01-24T14:53:48.579Z,75.00
2019-01-24T14:56:15.468Z,67.10
2019-01-24T14:58:42.135Z,68.70
2019-01-24T15:01:09.070Z,67.55
2019-01-24T15:03:35.814Z,61.50
2019-01-24T15:06:02.913Z,68.47
2019-01-24T15:08:29.476Z,65.87
2019-01-24T15:10:55.845Z,74.20
2019-01-24T15:13:22.540Z,71.72
2019-01-24T15:15:49.096Z,57.85
2019-01-24T15:18:15.797Z,63.20
2019-01-24T15:20:42.380Z,62.05
2019-01-24T15:23:08.834Z,70.22
2019-01-24T15:25:35.500Z,71.25
2019-01-24T15:28:02.247Z,71.02
2019-01-24T15:30:29.220Z,60.15
2019-01-24T15:32:55.788Z,69.42
2019-01-24T15:35:22.517Z,66.75
2019-01-24T15:37:54.267Z,59.20
2019-01-24T15:40:26.392Z,68.85
2019-01-24T15:42:53.055Z,69.05
2019-01-24T15:45:19.719Z,63.95
2019-01-24T15:47:46.398Z,61.53
2019-01-24T15:50:15.962Z,65.83
2019-01-24T15:52:42.573Z,71.30
2019-01-24T15:55:09.444Z,69.80
2019-01-24T15:57:36.369Z,62.80
2019-01-24T16:00:21.243Z,64.15
2019-01-24T16:02:48.207Z,62.88
2019-01-24T16:05:14.855Z,69.35
2019-01-24T16:07:41.412Z,65.25
2019-01-24T16:10:13.954Z,54.00
2019-01-24T16:12:40.446Z,59.00
2019-01-24T16:15:10.930Z,60.40
2019-01-24T16:17:37.477Z,55.95
2019-01-24T16:20:13.345Z,64.42
2019-01-24T16:22:40.001Z,62.43
2019-01-24T16:25:09.377Z,60.10
2019-01-24T16:27:35.923Z,56.48
2019-01-24T16:30:05.704Z,63.60
2019-01-24T16:32:32.145Z,68.67
2019-01-24T16:34:58.549Z,63.78
2019-01-24T16:37:25.011Z,56.35
2019-01-24T16:39:51.453Z,61.08
2019-01-24T16:42:18.097Z,59.60
2019-01-24T16:44:44.968Z,75.85
2019-01-24T16:47:11.549Z,75.08
2019-01-24T16:49:38.389Z,65.72
2019-01-24T16:52:05.065Z,67.12
2019-01-24T16:54:31.409Z,62.17
2019-01-24T16:56:57.992Z,66.90
2019-01-24T16:59:24.543Z,63.73
2019-01-24T17:01:51.000Z,74.77
2019-01-24T17:04:17.460Z,74.60
2019-01-24T17:06:43.921Z,55.75
2019-01-24T17:09:10.405Z,61.25
2019-01-24T17:11:37.132Z,63.25
2019-01-24T17:14:04.402Z,59.03
2019-01-24T17:16:31.068Z,56.45
2019-01-24T17:18:57.550Z,70.65
2019-01-24T17:21:24.124Z,65.55
2019-01-24T17:23:50.601Z,61.40
2019-01-24T17:26:17.566Z,69.55
2019-01-24T17:28:44.052Z,70.03
2019-01-24T17:31:10.793Z,59.53
2019-01-24T17:33:37.448Z,76.75
2019-01-24T17:36:04.104Z,63.10
2019-01-24T17:38:30.788Z,73.45
2019-01-24T17:40:57.376Z,69.05
2019-01-24T17:43:23.941Z,62.65
2019-01-24T17:45:50.402Z,59.27
2019-01-24T17:48:16.797Z,56.55
2019-01-24T17:50:43.342Z,59.10
2019-01-24T17:53:09.944Z,65.45
2019-01-24T17:55:39.201Z,66.28
2019-01-24T17:58:07.253Z,68.25
2019-01-24T18:00:35.636Z,68.33
2019-01-24T18:03:03.313Z,60.67
2019-01-24T18:05:30.163Z,62.78
2019-01-24T18:07:56.605Z,53.23
2019-01-24T18:10:25.804Z,65.92
2019-01-24T18:12:52.561Z,68.40
2019-01-24T18:15:21.638Z,65.32
2019-01-24T18:17:48.175Z,65.85
2019-01-24T18:20:18.330Z,59.18
2019-01-24T18:22:45.124Z,73.05
2019-01-24T18:25:11.619Z,66.42
2019-01-24T18:27:38.071Z,61.18
2019-01-24T18:30:08.333Z,70.75
2019-01-24T18:32:34.881Z,62.08
2019-01-24T18:35:01.623Z,66.05
2019-01-24T18:37:28.361Z,66.75
2019-01-24T18:39:54.910Z,60.70
2019-01-24T18:42:21.497Z,58.05
2019-01-24T18:44:48.038Z,63.50
2019-01-24T18:47:14.767Z,60.03
2019-01-24T18:49:41.420Z,56.85
2019-01-24T18:52:08.106Z,72.97
2019-01-24T18:54:34.571Z,60.65
2019-01-24T18:57:01.523Z,60.45
2019-01-24T18:59:28.073Z,58.05
2019-01-24T19:01:54.551Z,65.52
2019-01-24T19:04:21.101Z,69.53
2019-01-24T19:06:47.672Z,63.55
2019-01-24T19:09:14.348Z,74.87
2019-01-24T19:11:41.187Z,71.80
2019-01-24T19:14:07.746Z,61.10
2019-01-24T19:16:34.414Z,57.95
2019-01-24T19:19:00.863Z,66.57
2019-01-24T19:21:27.413Z,62.43
2019-01-24T19:23:53.893Z,56.25
2019-01-24T19:26:20.797Z,71.40
2019-01-24T19:28:47.362Z,70.30
2019-01-24T19:31:14.016Z,70.47
2019-01-24T19:33:40.797Z,60.52
2019-01-24T19:36:07.254Z,57.65
2019-01-24T19:38:33.828Z,70.83
2019-01-24T19:41:00.531Z,51.63
2019-01-24T19:43:27.013Z,67.47
2019-01-24T19:45:53.982Z,64.25
2019-01-24T19:48:20.952Z,68.17
2019-01-24T19:50:47.395Z,57.17
2019-01-24T19:53:14.175Z,56.08
2019-01-24T19:55:41.011Z,70.50
2019-01-24T19:58:07.606Z,65.72
2019-01-24T20:00:34.629Z,67.87
2019-01-24T20:03:01.200Z,73.15
2019-01-24T20:05:28.265Z,58.98
2019-01-24T20:07:55.031Z,71.85
2019-01-24T20:10:23.424Z,57.80
2019-01-24T20:12:49.996Z,48.80
2019-01-24T20:15:18.846Z,60.17
2019-01-24T20:17:45.500Z,59.58
2019-01-24T20:20:13.880Z,57.70
2019-01-24T20:22:40.828Z,60.17
2019-01-24T20:25:10.609Z,56.00
2019-01-24T20:27:37.061Z,65.60
2019-01-24T20:30:07.447Z,66.77
2019-01-24T20:32:34.113Z,72.92
2019-01-24T20:35:00.676Z,71.87
2019-01-24T20:37:27.420Z,63.48
2019-01-24T20:39:54.142Z,69.30
2019-01-24T20:42:20.718Z,74.60
2019-01-24T20:44:47.156Z,68.75
2019-01-24T20:47:13.884Z,86.70
2019-01-24T20:49:40.339Z,66.33
2019-01-24T20:52:07.008Z,60.63
2019-01-24T20:54:33.564Z,67.30
2019-01-24T20:57:00.030Z,68.15
2019-01-24T20:59:26.595Z,59.67
2019-01-24T21:01:53.048Z,66.75
2019-01-24T21:04:19.598Z,67.32
2019-01-24T21:06:46.173Z,64.10
2019-01-24T21:09:14.922Z,64.50
2019-01-24T21:11:41.223Z,60.88
2019-01-24T21:14:07.675Z,76.17
2019-01-24T21:16:34.409Z,65.90
2019-01-24T21:19:01.158Z,66.80
2019-01-24T21:21:27.603Z,67.60
2019-01-24T21:23:54.168Z,70.72
2019-01-24T21:26:20.529Z,59.08
2019-01-24T21:28:47.105Z,70.60
2019-01-24T21:31:13.651Z,68.70
2019-01-24T21:33:40.336Z,60.88
2019-01-24T21:36:07.168Z,73.15
2019-01-24T21:38:33.752Z,80.30
2019-01-24T21:41:00.373Z,74.75
2019-01-24T21:43:26.825Z,67.15
2019-01-24T21:45:53.431Z,61.92
2019-01-24T21:48:19.972Z,68.33
2019-01-24T21:50:46.812Z,72.22
2019-01-24T21:53:13.281Z,65.55
2019-01-24T21:55:39.855Z,76.20
2019-01-24T21:58:06.512Z,66.75
2019-01-24T22:00:33.156Z,64.42
2019-01-24T22:02:59.712Z,72.08
2019-01-24T22:05:26.314Z,71.80
2019-01-24T22:07:53.313Z,67.90
2019-01-24T22:10:24.906Z,74.22
2019-01-24T22:12:51.575Z,73.65
2019-01-24T22:15:20.437Z,77.72
2019-01-24T22:17:46.911Z,69.97
2019-01-24T22:20:15.144Z,70.70
2019-01-24T22:22:41.900Z,84.75
2019-01-24T22:25:11.780Z,75.20
2019-01-24T22:27:38.345Z,70.15
2019-01-24T22:30:13.942Z,82.10
2019-01-24T22:32:40.496Z,73.42
2019-01-24T22:35:07.356Z,73.02
2019-01-24T22:37:33.703Z,73.62
2019-01-24T22:40:00.247Z,61.50
2019-01-24T22:42:26.636Z,79.75
2019-01-24T22:44:53.113Z,71.85
2019-01-24T22:47:19.569Z,78.70
2019-01-24T22:49:46.314Z,68.33
2019-01-24T22:52:12.668Z,84.80
2019-01-24T22:54:39.140Z,89.30
2019-01-24T22:57:05.688Z,75.92
2019-01-24T22:59:32.125Z,74.07
2019-01-24T23:01:58.813Z,71.40
2019-01-24T23:04:25.370Z,72.85
2019-01-24T23:06:51.952Z,76.22
2019-01-24T23:09:18.408Z,87.92
2019-01-24T23:11:44.860Z,80.62
2019-01-24T23:14:11.329Z,76.77
2019-01-24T23:16:38.019Z,74.82
2019-01-24T23:19:04.665Z,72.60
2019-01-24T23:21:31.224Z,68.92
2019-01-24T23:23:57.957Z,77.95
2019-01-24T23:26:24.417Z,80.72
2019-01-24T23:28:50.926Z,69.82
2019-01-24T23:31:17.393Z,75.10
2019-01-24T23:33:43.866Z,71.22
2019-01-24T23:36:10.319Z,69.97
2019-01-24T23:38:37.056Z,68.92
2019-01-24T23:41:03.795Z,72.82
2019-01-24T23:43:30.255Z,65.75
2019-01-24T23:45:56.780Z,76.05
2019-01-24T23:48:23.266Z,70.22
2019-01-24T23:50:49.980Z,72.70
2019-01-24T23:53:16.480Z,83.82
2019-01-24T23:55:43.294Z,78.97
2019-01-24T23:58:10.196Z,78.62
